sensor_id;sensor_type;location;lat;lon;timestamp;temperature;humidity
73955;DHT22;62306;52.516;13.290;2024-02-04T00:00:22;8.70;99.90
73955;DHT22;62306;52.516;13.290;2024-02-04T00:02:49;8.70;99.90
73955;DHT22;62306;52.516;13.290;2024-02-04T00:05:16;8.70;99.90
73955;DHT22;62306;52.516;13.290;2024-02-04T00:07:44;8.70;99.90
73955;DHT22;62306;52.516;13.290;2024-02-04T00:10:13;8.70;99.90
73955;DHT22;62306;52.516;13.290;2024-02-04T00:12:41;8.70;99.90
73955;DHT22;62306;52.516;13.290;2024-02-04T00:15:09;8.70;99.90
73955;DHT22;62306;52.516;13.290;2024-02-04T00:17:37;8.80;99.90
73955;DHT22;62306;52.516;13.290;2024-02-04T00:20:06;8.80;99.90
73955;DHT22;62306;52.516;13.290;2024-02-04T00:22:33;8.80;99.90
73955;DHT22;62306;52.516;13.290;2024-02-04T00:25:00;8.70;99.90
73955;DHT22;62306;52.516;13.290;2024-02-04T00:27:30;8.70;99.90
73955;DHT22;62306;52.516;13.290;2024-02-04T00:30:01;8.70;99.90
73955;DHT22;62306;52.516;13.290;2024-02-04T00:32:28;8.60;99.90
73955;DHT22;62306;52.516;13.290;2024-02-04T00:34:56;8.70;99.90
73955;DHT22;62306;52.516;13.290;2024-02-04T00:37:23;8.60;99.90
73955;DHT22;62306;52.516;13.290;2024-02-04T00:39:50;8.60;99.90
73955;DHT22;62306;52.516;13.290;2024-02-04T00:42:17;8.50;99.90
73955;DHT22;62306;52.516;13.290;2024-02-04T00:44:53;8.40;99.90
73955;DHT22;62306;52.516;13.290;2024-02-04T00:47:27;8.30;99.90
73955;DHT22;62306;52.516;13.290;2024-02-04T00:49:56;8.20;99.90
73955;DHT22;62306;52.516;13.290;2024-02-04T00:52:23;8.10;99.90
73955;DHT22;62306;52.516;13.290;2024-02-04T00:54:50;8.00;99.90
73955;DHT22;62306;52.516;13.290;2024-02-04T00:57:17;8.00;99.90
73955;DHT22;62306;52.516;13.290;2024-02-04T00:59:47;7.90;99.90
73955;DHT22;62306;52.516;13.290;2024-02-04T01:02:15;7.80;99.90
73955;DHT22;62306;52.516;13.290;2024-02-04T01:04:43;7.80;99.90
73955;DHT22;62306;52.516;13.290;2024-02-04T01:07:11;7.70;99.90
73955;DHT22;62306;52.516;13.290;2024-02-04T01:09:39;7.70;99.90
73955;DHT22;62306;52.516;13.290;2024-02-04T01:12:07;7.60;99.90
73955;DHT22;62306;52.516;13.290;2024-02-04T01:14:34;7.60;99.90
73955;DHT22;62306;52.516;13.290;2024-02-04T01:17:02;7.60;99.90
73955;DHT22;62306;52.516;13.290;2024-02-04T01:19:29;7.50;99.90
73955;DHT22;62306;52.516;13.290;2024-02-04T01:21:56;7.50;99.90
73955;DHT22;62306;52.516;13.290;2024-02-04T01:24:25;7.50;99.90
73955;DHT22;62306;52.516;13.290;2024-02-04T01:26:52;7.50;99.90
73955;DHT22;62306;52.516;13.290;2024-02-04T01:29:19;7.50;99.90
73955;DHT22;62306;52.516;13.290;2024-02-04T01:31:46;7.50;99.90
73955;DHT22;62306;52.516;13.290;2024-02-04T01:34:16;7.50;99.90
73955;DHT22;62306;52.516;13.290;2024-02-04T01:36:43;7.60;99.90
73955;DHT22;62306;52.516;13.290;2024-02-04T01:39:10;7.60;99.90
73955;DHT22;62306;52.516;13.290;2024-02-04T01:41:38;7.60;99.90
73955;DHT22;62306;52.516;13.290;2024-02-04T01:44:05;7.50;99.90
73955;DHT22;62306;52.516;13.290;2024-02-04T01:46:38;7.50;99.90
73955;DHT22;62306;52.516;13.290;2024-02-04T01:49:05;7.50;99.90
73955;DHT22;62306;52.516;13.290;2024-02-04T01:51:32;7.40;99.90
73955;DHT22;62306;52.516;13.290;2024-02-04T01:54:00;7.40;99.90
73955;DHT22;62306;52.516;13.290;2024-02-04T01:56:33;7.30;99.90
73955;DHT22;62306;52.516;13.290;2024-02-04T01:59:04;7.30;99.90
73955;DHT22;62306;52.516;13.290;2024-02-04T02:01:32;7.30;99.90
73955;DHT22;62306;52.516;13.290;2024-02-04T02:04:01;7.20;99.90
73955;DHT22;62306;52.516;13.290;2024-02-04T02:06:31;7.20;99.90
73955;DHT22;62306;52.516;13.290;2024-02-04T02:09:00;7.20;99.90
73955;DHT22;62306;52.516;13.290;2024-02-04T02:11:35;7.20;99.90
73955;DHT22;62306;52.516;13.290;2024-02-04T02:14:12;7.20;99.90
73955;DHT22;62306;52.516;13.290;2024-02-04T02:16:44;7.30;99.90
73955;DHT22;62306;52.516;13.290;2024-02-04T02:19:25;7.30;99.90
73955;DHT22;62306;52.516;13.290;2024-02-04T02:22:00;7.30;99.90
73955;DHT22;62306;52.516;13.290;2024-02-04T02:24:34;7.20;99.90
73955;DHT22;62306;52.516;13.290;2024-02-04T02:27:02;7.20;99.90
73955;DHT22;62306;52.516;13.290;2024-02-04T02:29:31;7.10;99.90
73955;DHT22;62306;52.516;13.290;2024-02-04T02:31:59;7.10;99.90
73955;DHT22;62306;52.516;13.290;2024-02-04T02:34:29;7.10;99.90
73955;DHT22;62306;52.516;13.290;2024-02-04T02:36:59;7.00;99.90
73955;DHT22;62306;52.516;13.290;2024-02-04T02:39:32;7.00;99.90
73955;DHT22;62306;52.516;13.290;2024-02-04T02:42:04;7.00;99.90
73955;DHT22;62306;52.516;13.290;2024-02-04T02:44:32;7.00;99.90
73955;DHT22;62306;52.516;13.290;2024-02-04T02:47:03;7.00;99.90
73955;DHT22;62306;52.516;13.290;2024-02-04T02:49:32;7.00;99.90
73955;DHT22;62306;52.516;13.290;2024-02-04T02:51:58;7.00;99.90
73955;DHT22;62306;52.516;13.290;2024-02-04T02:54:25;7.10;99.90
73955;DHT22;62306;52.516;13.290;2024-02-04T02:56:52;7.10;99.90
73955;DHT22;62306;52.516;13.290;2024-02-04T02:59:21;7.20;99.90
73955;DHT22;62306;52.516;13.290;2024-02-04T03:01:48;7.20;99.90
73955;DHT22;62306;52.516;13.290;2024-02-04T03:04:15;7.30;99.90
73955;DHT22;62306;52.516;13.290;2024-02-04T03:06:41;7.30;99.90
73955;DHT22;62306;52.516;13.290;2024-02-04T03:09:08;7.40;99.90
73955;DHT22;62306;52.516;13.290;2024-02-04T03:11:35;7.40;99.90
73955;DHT22;62306;52.516;13.290;2024-02-04T03:14:03;7.50;99.90
73955;DHT22;62306;52.516;13.290;2024-02-04T03:16:32;7.50;99.90
73955;DHT22;62306;52.516;13.290;2024-02-04T03:18:58;7.50;99.90
73955;DHT22;62306;52.516;13.290;2024-02-04T03:21:25;7.60;99.90
73955;DHT22;62306;52.516;13.290;2024-02-04T03:23:52;7.60;99.90
73955;DHT22;62306;52.516;13.290;2024-02-04T03:26:19;7.60;99.90
73955;DHT22;62306;52.516;13.290;2024-02-04T03:28:46;7.60;99.90
73955;DHT22;62306;52.516;13.290;2024-02-04T03:31:19;7.60;99.90
73955;DHT22;62306;52.516;13.290;2024-02-04T03:33:48;7.60;99.90
73955;DHT22;62306;52.516;13.290;2024-02-04T03:36:18;7.60;99.90
73955;DHT22;62306;52.516;13.290;2024-02-04T03:38:45;7.70;99.90
73955;DHT22;62306;52.516;13.290;2024-02-04T03:41:12;7.70;99.90
73955;DHT22;62306;52.516;13.290;2024-02-04T03:43:39;7.70;99.90
73955;DHT22;62306;52.516;13.290;2024-02-04T03:46:06;7.70;99.90
73955;DHT22;62306;52.516;13.290;2024-02-04T03:48:33;7.70;99.90
73955;DHT22;62306;52.516;13.290;2024-02-04T03:51:02;7.70;99.90
73955;DHT22;62306;52.516;13.290;2024-02-04T03:53:29;7.70;99.90
73955;DHT22;62306;52.516;13.290;2024-02-04T03:55:56;7.80;99.90
73955;DHT22;62306;52.516;13.290;2024-02-04T03:58:23;7.70;99.90
73955;DHT22;62306;52.516;13.290;2024-02-04T04:00:55;7.80;99.90
73955;DHT22;62306;52.516;13.290;2024-02-04T04:03:22;7.70;99.90
73955;DHT22;62306;52.516;13.290;2024-02-04T04:05:49;7.60;99.90
73955;DHT22;62306;52.516;13.290;2024-02-04T04:08:17;7.60;99.90
73955;DHT22;62306;52.516;13.290;2024-02-04T04:10:45;7.50;99.90
73955;DHT22;62306;52.516;13.290;2024-02-04T04:13:12;7.50;99.90
73955;DHT22;62306;52.516;13.290;2024-02-04T04:15:39;7.40;99.90
73955;DHT22;62306;52.516;13.290;2024-02-04T04:18:07;7.30;99.90
73955;DHT22;62306;52.516;13.290;2024-02-04T04:20:36;7.20;99.90
73955;DHT22;62306;52.516;13.290;2024-02-04T04:23:03;7.20;99.90
73955;DHT22;62306;52.516;13.290;2024-02-04T04:25:31;7.20;99.90
73955;DHT22;62306;52.516;13.290;2024-02-04T04:27:58;7.10;99.90
73955;DHT22;62306;52.516;13.290;2024-02-04T04:30:25;7.10;99.90
73955;DHT22;62306;52.516;13.290;2024-02-04T04:32:52;7.10;99.90
73955;DHT22;62306;52.516;13.290;2024-02-04T04:35:19;7.10;99.90
73955;DHT22;62306;52.516;13.290;2024-02-04T04:37:46;7.00;99.90
73955;DHT22;62306;52.516;13.290;2024-02-04T04:40:13;7.00;99.90
73955;DHT22;62306;52.516;13.290;2024-02-04T04:42:41;7.00;99.90
73955;DHT22;62306;52.516;13.290;2024-02-04T04:45:09;6.90;99.90
73955;DHT22;62306;52.516;13.290;2024-02-04T04:47:36;6.90;99.90
73955;DHT22;62306;52.516;13.290;2024-02-04T04:50:05;6.90;99.90
73955;DHT22;62306;52.516;13.290;2024-02-04T04:52:32;6.90;99.90
73955;DHT22;62306;52.516;13.290;2024-02-04T04:54:59;6.90;99.90
73955;DHT22;62306;52.516;13.290;2024-02-04T04:57:26;7.00;99.90
73955;DHT22;62306;52.516;13.290;2024-02-04T04:59:54;7.00;99.90
73955;DHT22;62306;52.516;13.290;2024-02-04T05:02:24;7.00;99.90
73955;DHT22;62306;52.516;13.290;2024-02-04T05:04:51;7.00;99.90
73955;DHT22;62306;52.516;13.290;2024-02-04T05:07:18;6.90;99.90
73955;DHT22;62306;52.516;13.290;2024-02-04T05:09:45;6.90;99.90
73955;DHT22;62306;52.516;13.290;2024-02-04T05:12:12;6.90;99.90
73955;DHT22;62306;52.516;13.290;2024-02-04T05:14:39;6.80;99.90
73955;DHT22;62306;52.516;13.290;2024-02-04T05:17:08;6.80;99.90
73955;DHT22;62306;52.516;13.290;2024-02-04T05:19:35;6.80;99.90
73955;DHT22;62306;52.516;13.290;2024-02-04T05:22:02;6.90;99.90
73955;DHT22;62306;52.516;13.290;2024-02-04T05:24:29;6.80;99.90
73955;DHT22;62306;52.516;13.290;2024-02-04T05:26:56;6.80;99.90
73955;DHT22;62306;52.516;13.290;2024-02-04T05:29:23;6.80;99.90
73955;DHT22;62306;52.516;13.290;2024-02-04T05:31:50;6.80;99.90
73955;DHT22;62306;52.516;13.290;2024-02-04T05:34:18;6.80;99.90
73955;DHT22;62306;52.516;13.290;2024-02-04T05:36:45;6.80;99.90
73955;DHT22;62306;52.516;13.290;2024-02-04T05:39:13;6.80;99.90
73955;DHT22;62306;52.516;13.290;2024-02-04T05:41:41;6.80;99.90
73955;DHT22;62306;52.516;13.290;2024-02-04T05:44:08;6.80;99.90
73955;DHT22;62306;52.516;13.290;2024-02-04T05:46:36;6.90;99.90
73955;DHT22;62306;52.516;13.290;2024-02-04T05:49:03;6.90;99.90
73955;DHT22;62306;52.516;13.290;2024-02-04T05:51:32;6.80;99.90
73955;DHT22;62306;52.516;13.290;2024-02-04T05:54:03;6.90;99.90
73955;DHT22;62306;52.516;13.290;2024-02-04T05:56:30;6.90;99.90
73955;DHT22;62306;52.516;13.290;2024-02-04T05:58:57;6.90;99.90
73955;DHT22;62306;52.516;13.290;2024-02-04T06:01:24;7.00;99.90
73955;DHT22;62306;52.516;13.290;2024-02-04T06:03:51;7.00;99.90
73955;DHT22;62306;52.516;13.290;2024-02-04T06:06:18;7.00;99.90
73955;DHT22;62306;52.516;13.290;2024-02-04T06:08:47;6.90;99.90
73955;DHT22;62306;52.516;13.290;2024-02-04T06:11:15;7.00;99.90
73955;DHT22;62306;52.516;13.290;2024-02-04T06:13:43;7.00;99.90
73955;DHT22;62306;52.516;13.290;2024-02-04T06:16:10;7.10;99.90
73955;DHT22;62306;52.516;13.290;2024-02-04T06:18:38;7.10;99.90
73955;DHT22;62306;52.516;13.290;2024-02-04T06:21:06;7.10;99.90
73955;DHT22;62306;52.516;13.290;2024-02-04T06:23:33;7.10;99.90
73955;DHT22;62306;52.516;13.290;2024-02-04T06:26:01;7.00;99.90
73955;DHT22;62306;52.516;13.290;2024-02-04T06:28:28;7.00;99.90
73955;DHT22;62306;52.516;13.290;2024-02-04T06:30:55;7.00;99.90
73955;DHT22;62306;52.516;13.290;2024-02-04T06:33:22;6.90;99.90
73955;DHT22;62306;52.516;13.290;2024-02-04T06:35:50;6.90;99.90
73955;DHT22;62306;52.516;13.290;2024-02-04T06:38:17;6.80;99.90
73955;DHT22;62306;52.516;13.290;2024-02-04T06:40:44;6.80;99.90
73955;DHT22;62306;52.516;13.290;2024-02-04T06:43:12;6.80;99.90
73955;DHT22;62306;52.516;13.290;2024-02-04T06:45:39;6.80;99.90
73955;DHT22;62306;52.516;13.290;2024-02-04T06:48:07;6.80;99.90
73955;DHT22;62306;52.516;13.290;2024-02-04T06:50:35;6.80;99.90
73955;DHT22;62306;52.516;13.290;2024-02-04T06:53:02;6.70;99.90
73955;DHT22;62306;52.516;13.290;2024-02-04T06:55:29;6.70;99.90
73955;DHT22;62306;52.516;13.290;2024-02-04T06:57:56;6.70;99.90
73955;DHT22;62306;52.516;13.290;2024-02-04T07:00:24;6.70;99.90
73955;DHT22;62306;52.516;13.290;2024-02-04T07:02:51;6.70;99.90
73955;DHT22;62306;52.516;13.290;2024-02-04T07:05:18;6.80;99.90
73955;DHT22;62306;52.516;13.290;2024-02-04T07:07:47;6.90;99.90
73955;DHT22;62306;52.516;13.290;2024-02-04T07:10:14;6.90;99.90
73955;DHT22;62306;52.516;13.290;2024-02-04T07:12:41;7.00;99.90
73955;DHT22;62306;52.516;13.290;2024-02-04T07:15:09;7.10;99.90
73955;DHT22;62306;52.516;13.290;2024-02-04T07:17:37;7.00;99.90
73955;DHT22;62306;52.516;13.290;2024-02-04T07:20:05;7.10;99.90
73955;DHT22;62306;52.516;13.290;2024-02-04T07:22:32;7.00;99.90
73955;DHT22;62306;52.516;13.290;2024-02-04T07:25:01;7.00;99.90
73955;DHT22;62306;52.516;13.290;2024-02-04T07:27:29;7.10;99.90
73955;DHT22;62306;52.516;13.290;2024-02-04T07:29:56;7.10;99.90
73955;DHT22;62306;52.516;13.290;2024-02-04T07:32:23;7.20;99.90
73955;DHT22;62306;52.516;13.290;2024-02-04T07:34:52;7.20;99.90
73955;DHT22;62306;52.516;13.290;2024-02-04T07:37:19;7.20;99.90
73955;DHT22;62306;52.516;13.290;2024-02-04T07:39:46;7.20;99.90
73955;DHT22;62306;52.516;13.290;2024-02-04T07:42:12;7.30;99.90
73955;DHT22;62306;52.516;13.290;2024-02-04T07:44:39;7.40;99.90
73955;DHT22;62306;52.516;13.290;2024-02-04T07:47:06;7.40;99.90
73955;DHT22;62306;52.516;13.290;2024-02-04T07:49:33;7.50;99.90
73955;DHT22;62306;52.516;13.290;2024-02-04T07:52:02;7.50;99.90
73955;DHT22;62306;52.516;13.290;2024-02-04T07:54:29;7.50;99.90
73955;DHT22;62306;52.516;13.290;2024-02-04T07:56:56;7.60;99.90
73955;DHT22;62306;52.516;13.290;2024-02-04T07:59:23;7.60;99.90
73955;DHT22;62306;52.516;13.290;2024-02-04T08:01:50;7.60;99.90
73955;DHT22;62306;52.516;13.290;2024-02-04T08:04:17;7.60;99.90
73955;DHT22;62306;52.516;13.290;2024-02-04T08:06:43;7.70;99.90
73955;DHT22;62306;52.516;13.290;2024-02-04T08:09:12;7.80;99.90
73955;DHT22;62306;52.516;13.290;2024-02-04T08:11:39;7.90;99.90
73955;DHT22;62306;52.516;13.290;2024-02-04T08:14:06;8.00;99.90
73955;DHT22;62306;52.516;13.290;2024-02-04T08:16:33;8.10;99.90
73955;DHT22;62306;52.516;13.290;2024-02-04T08:19:00;8.10;99.90
73955;DHT22;62306;52.516;13.290;2024-02-04T08:21:27;8.20;99.90
73955;DHT22;62306;52.516;13.290;2024-02-04T08:23:57;8.30;99.90
73955;DHT22;62306;52.516;13.290;2024-02-04T08:26:25;8.30;99.90
73955;DHT22;62306;52.516;13.290;2024-02-04T08:28:52;8.30;99.90
73955;DHT22;62306;52.516;13.290;2024-02-04T08:31:19;8.30;99.90
73955;DHT22;62306;52.516;13.290;2024-02-04T08:33:46;8.30;99.90
73955;DHT22;62306;52.516;13.290;2024-02-04T08:36:13;8.30;99.90
73955;DHT22;62306;52.516;13.290;2024-02-04T08:38:41;8.30;99.90
73955;DHT22;62306;52.516;13.290;2024-02-04T08:41:08;8.30;99.90
73955;DHT22;62306;52.516;13.290;2024-02-04T08:43:36;8.30;99.90
73955;DHT22;62306;52.516;13.290;2024-02-04T08:46:04;8.30;99.90
73955;DHT22;62306;52.516;13.290;2024-02-04T08:48:32;8.30;99.90
73955;DHT22;62306;52.516;13.290;2024-02-04T08:50:59;8.30;99.90
73955;DHT22;62306;52.516;13.290;2024-02-04T08:53:25;8.40;99.90
73955;DHT22;62306;52.516;13.290;2024-02-04T08:55:52;8.40;99.90
73955;DHT22;62306;52.516;13.290;2024-02-04T08:58:19;8.40;99.90
73955;DHT22;62306;52.516;13.290;2024-02-04T09:00:48;8.50;99.90
73955;DHT22;62306;52.516;13.290;2024-02-04T09:03:15;8.50;99.90
73955;DHT22;62306;52.516;13.290;2024-02-04T09:05:42;8.60;99.90
73955;DHT22;62306;52.516;13.290;2024-02-04T09:08:09;8.60;99.90
73955;DHT22;62306;52.516;13.290;2024-02-04T09:10:36;8.60;99.90
73955;DHT22;62306;52.516;13.290;2024-02-04T09:13:03;8.60;99.90
73955;DHT22;62306;52.516;13.290;2024-02-04T09:15:30;8.70;99.90
73955;DHT22;62306;52.516;13.290;2024-02-04T09:17:58;8.70;99.90
73955;DHT22;62306;52.516;13.290;2024-02-04T09:20:25;8.70;99.90
73955;DHT22;62306;52.516;13.290;2024-02-04T09:22:52;8.80;99.90
73955;DHT22;62306;52.516;13.290;2024-02-04T09:25:19;8.70;99.90
73955;DHT22;62306;52.516;13.290;2024-02-04T09:27:46;8.80;99.90
73955;DHT22;62306;52.516;13.290;2024-02-04T09:30:13;8.90;99.90
73955;DHT22;62306;52.516;13.290;2024-02-04T09:32:40;9.00;99.90
73955;DHT22;62306;52.516;13.290;2024-02-04T09:35:09;9.10;99.90
73955;DHT22;62306;52.516;13.290;2024-02-04T09:37:36;9.10;99.90
73955;DHT22;62306;52.516;13.290;2024-02-04T09:40:03;9.10;99.90
73955;DHT22;62306;52.516;13.290;2024-02-04T09:42:30;9.10;99.90
73955;DHT22;62306;52.516;13.290;2024-02-04T09:44:58;9.10;99.90
73955;DHT22;62306;52.516;13.290;2024-02-04T09:47:25;9.20;99.90
73955;DHT22;62306;52.516;13.290;2024-02-04T09:49:53;9.30;99.90
73955;DHT22;62306;52.516;13.290;2024-02-04T09:52:29;9.40;99.90
73955;DHT22;62306;52.516;13.290;2024-02-04T09:54:59;9.50;99.90
73955;DHT22;62306;52.516;13.290;2024-02-04T09:57:28;9.50;99.90
73955;DHT22;62306;52.516;13.290;2024-02-04T09:59:56;9.50;99.90
73955;DHT22;62306;52.516;13.290;2024-02-04T10:02:23;9.60;99.90
73955;DHT22;62306;52.516;13.290;2024-02-04T10:04:51;9.60;99.90
73955;DHT22;62306;52.516;13.290;2024-02-04T10:07:18;9.50;99.90
73955;DHT22;62306;52.516;13.290;2024-02-04T10:09:46;9.60;99.90
73955;DHT22;62306;52.516;13.290;2024-02-04T10:12:13;9.60;99.90
73955;DHT22;62306;52.516;13.290;2024-02-04T10:14:40;9.50;99.90
73955;DHT22;62306;52.516;13.290;2024-02-04T10:17:07;9.50;99.90
73955;DHT22;62306;52.516;13.290;2024-02-04T10:19:34;9.60;99.90
73955;DHT22;62306;52.516;13.290;2024-02-04T10:22:02;9.60;99.90
73955;DHT22;62306;52.516;13.290;2024-02-04T10:24:29;9.60;99.90
73955;DHT22;62306;52.516;13.290;2024-02-04T10:26:58;9.70;99.90
73955;DHT22;62306;52.516;13.290;2024-02-04T10:29:25;9.70;99.90
73955;DHT22;62306;52.516;13.290;2024-02-04T10:31:53;9.80;99.90
73955;DHT22;62306;52.516;13.290;2024-02-04T10:34:22;9.90;99.90
73955;DHT22;62306;52.516;13.290;2024-02-04T10:36:49;9.90;99.90
73955;DHT22;62306;52.516;13.290;2024-02-04T10:39:16;9.90;99.90
73955;DHT22;62306;52.516;13.290;2024-02-04T10:41:48;9.90;99.90
73955;DHT22;62306;52.516;13.290;2024-02-04T10:44:18;10.00;99.90
73955;DHT22;62306;52.516;13.290;2024-02-04T10:46:47;10.00;99.90
73955;DHT22;62306;52.516;13.290;2024-02-04T10:49:16;10.00;99.90
73955;DHT22;62306;52.516;13.290;2024-02-04T10:51:45;9.90;99.90
73955;DHT22;62306;52.516;13.290;2024-02-04T10:54:15;9.90;99.90
73955;DHT22;62306;52.516;13.290;2024-02-04T10:56:44;9.80;99.90
73955;DHT22;62306;52.516;13.290;2024-02-04T10:59:12;9.80;99.90
73955;DHT22;62306;52.516;13.290;2024-02-04T11:01:45;9.90;99.90
73955;DHT22;62306;52.516;13.290;2024-02-04T11:04:14;9.90;99.90
73955;DHT22;62306;52.516;13.290;2024-02-04T11:06:42;9.90;99.90
73955;DHT22;62306;52.516;13.290;2024-02-04T11:09:09;9.90;99.90
73955;DHT22;62306;52.516;13.290;2024-02-04T11:11:36;9.90;99.90
73955;DHT22;62306;52.516;13.290;2024-02-04T11:14:08;9.90;99.90
73955;DHT22;62306;52.516;13.290;2024-02-04T11:17:01;9.80;99.90
73955;DHT22;62306;52.516;13.290;2024-02-04T11:19:40;9.80;99.90
73955;DHT22;62306;52.516;13.290;2024-02-04T11:22:31;9.80;99.90
73955;DHT22;62306;52.516;13.290;2024-02-04T11:25:18;9.70;99.90
73955;DHT22;62306;52.516;13.290;2024-02-04T11:27:48;9.80;99.90
73955;DHT22;62306;52.516;13.290;2024-02-04T11:30:15;9.80;99.90
73955;DHT22;62306;52.516;13.290;2024-02-04T11:32:44;9.80;99.90
73955;DHT22;62306;52.516;13.290;2024-02-04T11:35:12;9.70;99.90
73955;DHT22;62306;52.516;13.290;2024-02-04T11:37:39;9.70;99.90
73955;DHT22;62306;52.516;13.290;2024-02-04T11:40:13;9.60;99.90
73955;DHT22;62306;52.516;13.290;2024-02-04T11:42:41;9.50;99.90
73955;DHT22;62306;52.516;13.290;2024-02-04T11:45:08;9.50;99.90
73955;DHT22;62306;52.516;13.290;2024-02-04T11:47:37;9.50;99.90
73955;DHT22;62306;52.516;13.290;2024-02-04T11:50:06;9.50;99.90
73955;DHT22;62306;52.516;13.290;2024-02-04T11:52:34;9.50;99.90
73955;DHT22;62306;52.516;13.290;2024-02-04T11:55:02;9.60;99.90
73955;DHT22;62306;52.516;13.290;2024-02-04T11:57:32;9.70;99.90
73955;DHT22;62306;52.516;13.290;2024-02-04T12:00:00;9.70;99.90
73955;DHT22;62306;52.516;13.290;2024-02-04T12:02:29;9.80;99.90
73955;DHT22;62306;52.516;13.290;2024-02-04T12:04:56;9.90;99.90
73955;DHT22;62306;52.516;13.290;2024-02-04T12:07:24;9.90;99.90
73955;DHT22;62306;52.516;13.290;2024-02-04T12:09:51;9.90;99.90
73955;DHT22;62306;52.516;13.290;2024-02-04T12:12:19;10.00;99.90
73955;DHT22;62306;52.516;13.290;2024-02-04T12:14:46;10.00;99.90
73955;DHT22;62306;52.516;13.290;2024-02-04T12:17:14;10.00;99.90
73955;DHT22;62306;52.516;13.290;2024-02-04T12:19:41;10.00;99.90
73955;DHT22;62306;52.516;13.290;2024-02-04T12:22:08;9.80;99.90
73955;DHT22;62306;52.516;13.290;2024-02-04T12:24:38;9.70;99.90
73955;DHT22;62306;52.516;13.290;2024-02-04T12:27:05;9.60;99.90
73955;DHT22;62306;52.516;13.290;2024-02-04T12:29:33;9.60;99.90
73955;DHT22;62306;52.516;13.290;2024-02-04T12:32:00;9.40;99.90
73955;DHT22;62306;52.516;13.290;2024-02-04T12:34:29;9.40;99.90
73955;DHT22;62306;52.516;13.290;2024-02-04T12:36:58;9.40;99.90
73955;DHT22;62306;52.516;13.290;2024-02-04T12:39:25;9.40;99.90
73955;DHT22;62306;52.516;13.290;2024-02-04T12:41:54;9.40;99.90
73955;DHT22;62306;52.516;13.290;2024-02-04T12:44:21;9.30;99.90
73955;DHT22;62306;52.516;13.290;2024-02-04T12:46:50;9.30;99.90
73955;DHT22;62306;52.516;13.290;2024-02-04T12:49:19;9.40;99.90
73955;DHT22;62306;52.516;13.290;2024-02-04T12:51:47;9.40;99.90
73955;DHT22;62306;52.516;13.290;2024-02-04T12:54:15;9.40;99.90
73955;DHT22;62306;52.516;13.290;2024-02-04T12:56:45;9.50;99.90
73955;DHT22;62306;52.516;13.290;2024-02-04T12:59:23;9.40;99.90
73955;DHT22;62306;52.516;13.290;2024-02-04T13:01:55;9.50;99.90
73955;DHT22;62306;52.516;13.290;2024-02-04T13:04:23;9.50;99.90
73955;DHT22;62306;52.516;13.290;2024-02-04T13:06:50;9.50;99.90
73955;DHT22;62306;52.516;13.290;2024-02-04T13:09:17;9.50;99.90
73955;DHT22;62306;52.516;13.290;2024-02-04T13:11:45;9.40;99.90
73955;DHT22;62306;52.516;13.290;2024-02-04T13:14:13;9.40;99.90
73955;DHT22;62306;52.516;13.290;2024-02-04T13:16:41;9.50;99.90
73955;DHT22;62306;52.516;13.290;2024-02-04T13:19:08;9.40;99.90
73955;DHT22;62306;52.516;13.290;2024-02-04T13:21:35;9.40;99.90
73955;DHT22;62306;52.516;13.290;2024-02-04T13:24:02;9.40;99.90
73955;DHT22;62306;52.516;13.290;2024-02-04T13:26:29;9.40;99.90
73955;DHT22;62306;52.516;13.290;2024-02-04T13:28:56;9.30;99.90
73955;DHT22;62306;52.516;13.290;2024-02-04T13:31:24;9.40;99.90
73955;DHT22;62306;52.516;13.290;2024-02-04T13:33:51;9.30;99.90
73955;DHT22;62306;52.516;13.290;2024-02-04T13:36:18;9.30;99.90
73955;DHT22;62306;52.516;13.290;2024-02-04T13:38:45;9.20;99.90
73955;DHT22;62306;52.516;13.290;2024-02-04T13:41:12;9.30;99.90
73955;DHT22;62306;52.516;13.290;2024-02-04T13:43:39;9.20;99.90
73955;DHT22;62306;52.516;13.290;2024-02-04T13:46:06;9.20;99.90
73955;DHT22;62306;52.516;13.290;2024-02-04T13:48:34;9.20;99.90
73955;DHT22;62306;52.516;13.290;2024-02-04T13:51:01;9.30;99.90
73955;DHT22;62306;52.516;13.290;2024-02-04T13:53:28;9.30;99.90
73955;DHT22;62306;52.516;13.290;2024-02-04T13:55:57;9.20;99.90
73955;DHT22;62306;52.516;13.290;2024-02-04T13:58:24;9.20;99.90
73955;DHT22;62306;52.516;13.290;2024-02-04T14:00:52;9.20;99.90
73955;DHT22;62306;52.516;13.290;2024-02-04T14:03:19;9.20;99.90
73955;DHT22;62306;52.516;13.290;2024-02-04T14:05:47;9.20;99.90
73955;DHT22;62306;52.516;13.290;2024-02-04T14:08:15;9.20;99.90
73955;DHT22;62306;52.516;13.290;2024-02-04T14:10:42;9.20;99.90
73955;DHT22;62306;52.516;13.290;2024-02-04T14:13:09;9.20;99.90
73955;DHT22;62306;52.516;13.290;2024-02-04T14:15:37;9.20;99.90
73955;DHT22;62306;52.516;13.290;2024-02-04T14:18:05;9.20;99.90
73955;DHT22;62306;52.516;13.290;2024-02-04T14:20:32;9.20;99.90
73955;DHT22;62306;52.516;13.290;2024-02-04T14:23:00;9.20;99.90
73955;DHT22;62306;52.516;13.290;2024-02-04T14:25:27;9.30;99.90
73955;DHT22;62306;52.516;13.290;2024-02-04T14:27:54;9.20;99.90
73955;DHT22;62306;52.516;13.290;2024-02-04T14:30:21;9.30;99.90
73955;DHT22;62306;52.516;13.290;2024-02-04T14:32:48;9.20;99.90
73955;DHT22;62306;52.516;13.290;2024-02-04T14:35:15;9.20;99.90
73955;DHT22;62306;52.516;13.290;2024-02-04T14:37:42;9.20;99.90
73955;DHT22;62306;52.516;13.290;2024-02-04T14:40:11;9.20;99.90
73955;DHT22;62306;52.516;13.290;2024-02-04T14:42:38;9.70;99.90
73955;DHT22;62306;52.516;13.290;2024-02-04T14:45:06;9.20;99.90
73955;DHT22;62306;52.516;13.290;2024-02-04T14:47:33;9.20;99.90
73955;DHT22;62306;52.516;13.290;2024-02-04T14:50:00;9.20;99.90
73955;DHT22;62306;52.516;13.290;2024-02-04T14:52:28;9.20;99.90
73955;DHT22;62306;52.516;13.290;2024-02-04T14:54:55;9.20;99.90
73955;DHT22;62306;52.516;13.290;2024-02-04T14:57:23;9.20;99.90
73955;DHT22;62306;52.516;13.290;2024-02-04T14:59:50;9.20;99.90
73955;DHT22;62306;52.516;13.290;2024-02-04T15:02:17;9.20;99.90
73955;DHT22;62306;52.516;13.290;2024-02-04T15:04:44;9.20;99.90
73955;DHT22;62306;52.516;13.290;2024-02-04T15:07:11;9.20;99.90
73955;DHT22;62306;52.516;13.290;2024-02-04T15:09:38;9.20;99.90
73955;DHT22;62306;52.516;13.290;2024-02-04T15:12:06;9.20;99.90
73955;DHT22;62306;52.516;13.290;2024-02-04T15:14:35;9.10;99.90
73955;DHT22;62306;52.516;13.290;2024-02-04T15:17:02;9.20;99.90
73955;DHT22;62306;52.516;13.290;2024-02-04T15:19:30;9.10;99.90
73955;DHT22;62306;52.516;13.290;2024-02-04T15:22:02;9.10;99.90
73955;DHT22;62306;52.516;13.290;2024-02-04T15:24:29;9.10;99.90
73955;DHT22;62306;52.516;13.290;2024-02-04T15:26:57;9.10;99.90
73955;DHT22;62306;52.516;13.290;2024-02-04T15:29:29;9.10;99.90
73955;DHT22;62306;52.516;13.290;2024-02-04T15:31:59;9.10;99.90
73955;DHT22;62306;52.516;13.290;2024-02-04T15:34:27;9.10;99.90